createdAt,value
2018-06-12T00:00:26.102Z,12.50
2018-06-12T00:01:26.123Z,14.30
2018-06-12T00:02:26.128Z,13.10
2018-06-12T00:03:26.145Z,12.60
2018-06-12T00:04:26.159Z,12.10
2018-06-12T00:05:26.174Z,13.50
2018-06-12T00:06:26.189Z,12.70
2018-06-12T00:07:26.207Z,11.80
2018-06-12T00:08:26.223Z,12.50
2018-06-12T00:09:26.238Z,14.30
2018-06-12T00:10:26.256Z,12.10
2018-06-12T00:11:26.271Z,12.50
2018-06-12T00:12:26.288Z,12.90
2018-06-12T00:13:26.302Z,13.10
2018-06-12T00:14:26.331Z,12.40
2018-06-12T00:15:26.337Z,13.00
2018-06-12T00:16:26.351Z,12.40
2018-06-12T00:17:26.368Z,13.10
2018-06-12T00:18:26.389Z,13.40
2018-06-12T00:19:26.398Z,12.70
2018-06-12T00:20:26.417Z,12.90
2018-06-12T00:21:26.439Z,13.80
2018-06-12T00:22:26.444Z,12.80
2018-06-12T00:23:26.462Z,13.70
2018-06-12T00:24:26.577Z,14.10
2018-06-12T00:25:26.962Z,13.00
2018-06-12T00:26:26.516Z,12.80
2018-06-12T00:27:26.527Z,13.40
2018-06-12T00:28:26.545Z,14.10
2018-06-12T00:29:26.562Z,13.40
2018-06-12T00:30:26.575Z,14.00
2018-06-12T00:31:26.596Z,13.60
2018-06-12T00:32:26.607Z,14.60
2018-06-12T00:33:26.721Z,14.00
2018-06-12T00:34:26.636Z,13.70
2018-06-12T00:35:26.653Z,14.10
2018-06-12T00:36:26.670Z,14.10
2018-06-12T00:37:26.685Z,13.80
2018-06-12T00:38:26.701Z,14.80
2018-06-12T00:39:26.719Z,15.70
2018-06-12T00:40:26.738Z,14.80
2018-06-12T00:41:26.748Z,13.90
2018-06-12T00:42:26.766Z,14.10
2018-06-12T00:43:26.782Z,13.90
2018-06-12T00:44:26.796Z,14.40
2018-06-12T00:45:26.814Z,13.90
2018-06-12T00:46:27.138Z,13.30
2018-06-12T00:47:26.847Z,14.50
2018-06-12T00:48:26.869Z,13.60
2018-06-12T00:49:26.876Z,13.90
2018-06-12T00:50:26.903Z,14.80
2018-06-12T00:51:26.909Z,12.60
2018-06-12T00:52:26.924Z,13.40
2018-06-12T00:53:26.940Z,13.90
2018-06-12T00:54:26.963Z,13.00
2018-06-12T00:55:26.974Z,13.00
2018-06-12T00:56:26.988Z,12.90
2018-06-12T00:57:27.001Z,13.30
2018-06-12T00:58:27.021Z,13.70
2018-06-12T00:59:27.037Z,12.30
2018-06-12T01:00:27.050Z,13.00
2018-06-12T01:01:27.066Z,13.80
2018-06-12T01:02:27.083Z,13.00
2018-06-12T01:03:27.099Z,13.10
2018-06-12T01:04:27.114Z,13.50
2018-06-12T01:05:27.130Z,13.90
2018-06-12T01:06:27.145Z,12.80
2018-06-12T01:07:27.171Z,13.00
2018-06-12T01:08:27.176Z,12.60
2018-06-12T01:09:27.200Z,12.70
2018-06-12T01:10:27.209Z,12.70
2018-06-12T01:11:27.234Z,12.40
2018-06-12T01:12:27.236Z,12.30
2018-06-12T01:13:27.263Z,11.30
2018-06-12T01:14:27.271Z,12.00
2018-06-12T01:15:27.282Z,13.30
2018-06-12T01:16:27.316Z,14.00
2018-06-12T01:17:27.313Z,13.60
2018-06-12T01:18:27.329Z,11.90
2018-06-12T01:19:27.350Z,12.30
2018-06-12T01:20:27.361Z,12.60
2018-06-12T01:21:27.375Z,11.80
2018-06-12T01:22:27.406Z,12.50
2018-06-12T01:23:27.411Z,13.10
2018-06-12T01:24:27.430Z,12.70
2018-06-12T01:25:27.438Z,12.10
2018-06-12T01:26:27.469Z,12.40
2018-06-12T01:27:27.471Z,11.70
2018-06-12T01:28:27.496Z,11.70
2018-06-12T01:29:27.503Z,12.30
2018-06-12T01:30:27.520Z,13.70
2018-06-12T01:31:27.539Z,12.40
2018-06-12T01:32:27.566Z,12.30
2018-06-12T01:33:27.570Z,11.90
2018-06-12T01:34:27.592Z,12.90
2018-06-12T01:35:27.595Z,12.40
2018-06-12T01:36:27.612Z,13.20
2018-06-12T01:37:27.627Z,12.60
2018-06-12T01:38:27.643Z,13.20
2018-06-12T01:39:27.666Z,12.20
2018-06-12T01:40:27.676Z,11.80
2018-06-12T01:41:27.690Z,12.90
2018-06-12T01:42:27.706Z,14.80
2018-06-12T01:43:27.727Z,11.30
2018-06-12T01:44:27.743Z,12.70
2018-06-12T01:45:27.780Z,12.80
2018-06-12T01:46:27.833Z,12.70
2018-06-12T01:47:27.813Z,12.30
2018-06-12T01:48:27.801Z,12.80
2018-06-12T01:49:27.818Z,12.30
2018-06-12T01:50:27.838Z,12.70
2018-06-12T01:51:27.850Z,13.70
2018-06-12T01:52:27.870Z,13.10
2018-06-12T01:53:27.883Z,12.50
2018-06-12T01:54:27.896Z,13.70
2018-06-12T01:55:27.911Z,12.50
2018-06-12T01:56:27.925Z,14.40
2018-06-12T01:57:27.942Z,13.00
2018-06-12T01:58:27.970Z,14.10
2018-06-12T01:59:27.972Z,13.00
2018-06-12T02:00:27.989Z,14.30
2018-06-12T02:01:28.004Z,13.50
2018-06-12T02:02:28.018Z,12.80
2018-06-12T02:03:28.040Z,13.10
2018-06-12T02:04:28.106Z,13.90
2018-06-12T02:05:28.079Z,13.10
2018-06-12T02:06:28.081Z,15.90
2018-06-12T02:07:28.100Z,13.20
2018-06-12T02:08:28.123Z,13.20
2018-06-12T02:09:28.131Z,13.60
2018-06-12T02:10:28.143Z,12.80
2018-06-12T02:11:28.159Z,12.80
2018-06-12T02:12:28.175Z,14.50
2018-06-12T02:13:28.192Z,13.70
2018-06-12T02:14:28.214Z,13.30
2018-06-12T02:15:28.225Z,14.30
2018-06-12T02:16:28.243Z,12.90
2018-06-12T02:17:28.257Z,13.90
2018-06-12T02:18:28.274Z,13.50
2018-06-12T02:19:28.291Z,13.50
2018-06-12T02:20:28.303Z,12.50
2018-06-12T02:21:28.319Z,13.90
2018-06-12T02:22:28.336Z,13.00
2018-06-12T02:23:28.355Z,14.60
2018-06-12T02:24:28.364Z,13.60
2018-06-12T02:25:28.387Z,13.40
2018-06-12T02:26:28.395Z,13.00
2018-06-12T02:27:28.412Z,16.20
2018-06-12T02:28:28.428Z,13.30
2018-06-12T02:29:28.452Z,12.70
2018-06-12T02:30:28.462Z,14.70
2018-06-12T02:31:28.476Z,12.30
2018-06-12T02:32:28.488Z,13.20
2018-06-12T02:33:28.514Z,14.20
2018-06-12T02:34:28.524Z,13.20
2018-06-12T02:36:28.803Z,12.30
2018-06-12T02:37:28.661Z,13.90
2018-06-12T02:38:28.580Z,12.50
2018-06-12T02:39:28.600Z,13.20
2018-06-12T02:40:28.612Z,14.10
2018-06-12T02:41:28.626Z,14.00
2018-06-12T02:42:28.650Z,12.40
2018-06-12T02:43:28.659Z,12.90
2018-06-12T02:44:28.678Z,12.90
2018-06-12T02:45:28.690Z,13.20
2018-06-12T02:46:28.708Z,12.20
2018-06-12T02:47:28.722Z,12.90
2018-06-12T02:48:28.741Z,12.50
2018-06-12T02:49:28.759Z,12.60
2018-06-12T02:50:28.776Z,12.70
2018-06-12T02:51:28.787Z,12.70
2018-06-12T02:52:28.799Z,13.00
2018-06-12T02:53:28.808Z,12.00
2018-06-12T02:54:28.823Z,13.10
2018-06-12T02:55:28.839Z,12.60
2018-06-12T02:56:28.864Z,13.00
2018-06-12T02:57:28.869Z,13.10
2018-06-12T02:58:28.888Z,13.40
2018-06-12T02:59:28.901Z,13.10
2018-06-12T03:00:28.916Z,12.20
2018-06-12T03:01:28.931Z,12.70
2018-06-12T03:02:28.952Z,13.10
2018-06-12T03:03:28.961Z,14.70
2018-06-12T03:04:28.985Z,12.40
2018-06-12T03:05:28.993Z,12.20
2018-06-12T03:06:29.022Z,13.20
2018-06-12T03:07:29.109Z,13.10
2018-06-12T03:08:29.040Z,12.90
2018-06-12T03:09:29.055Z,12.80
2018-06-12T03:10:29.090Z,12.20
2018-06-12T03:11:29.090Z,13.30
2018-06-12T03:12:29.100Z,13.00
2018-06-12T03:13:29.115Z,12.20
2018-06-12T03:14:29.131Z,13.50
2018-06-12T03:15:29.151Z,12.50
2018-06-12T03:16:29.163Z,11.90
2018-06-12T03:17:29.178Z,12.50
2018-06-12T03:18:29.215Z,11.90
2018-06-12T03:19:29.212Z,11.50
2018-06-12T03:20:29.223Z,12.30
2018-06-12T03:21:29.251Z,11.80
2018-06-12T03:22:29.260Z,11.90
2018-06-12T03:23:29.278Z,11.80
2018-06-12T03:24:29.287Z,12.50
2018-06-12T03:25:29.301Z,12.00
2018-06-12T03:26:29.324Z,11.70
2018-06-12T03:27:29.335Z,13.60
2018-06-12T03:28:29.349Z,13.00
2018-06-12T03:29:29.361Z,11.20
2018-06-12T03:30:29.381Z,12.50
2018-06-12T03:31:29.395Z,12.20
2018-06-12T03:32:29.412Z,12.40
2018-06-12T03:33:29.424Z,15.20
2018-06-12T03:34:29.446Z,12.20
2018-06-12T03:35:29.458Z,12.40
2018-06-12T03:36:29.484Z,11.70
2018-06-12T03:37:29.485Z,12.20
2018-06-12T03:38:29.508Z,13.50
2018-06-12T03:39:29.524Z,12.40
2018-06-12T03:40:29.550Z,12.70
2018-06-12T03:41:29.549Z,12.20
2018-06-12T03:42:29.564Z,13.30
2018-06-12T03:43:29.580Z,12.60
2018-06-12T03:44:29.607Z,11.80
2018-06-12T03:45:29.613Z,12.30
2018-06-12T03:46:29.627Z,12.50
2018-06-12T03:47:29.643Z,12.80
2018-06-12T03:48:29.660Z,13.00
2018-06-12T03:49:29.678Z,14.20
2018-06-12T03:50:29.690Z,13.20
2018-06-12T03:51:29.707Z,13.00
2018-06-12T03:52:29.722Z,13.00
2018-06-12T03:53:29.751Z,13.80
2018-06-12T03:54:29.749Z,12.40
2018-06-12T03:55:29.766Z,12.90
2018-06-12T03:56:29.781Z,12.90
2018-06-12T03:57:29.832Z,13.50
2018-06-12T03:58:29.815Z,14.10
2018-06-12T03:59:29.829Z,12.80
2018-06-12T04:00:29.945Z,12.30
2018-06-12T04:01:29.860Z,12.50
2018-06-12T04:02:29.880Z,13.40
2018-06-12T04:03:29.891Z,12.80
2018-06-12T04:04:29.911Z,12.80
2018-06-12T04:05:29.920Z,13.10
2018-06-12T04:06:29.944Z,12.80
2018-06-12T04:07:29.973Z,12.90
2018-06-12T04:08:29.968Z,11.90
2018-06-12T04:09:29.995Z,12.70
2018-06-12T04:10:30.021Z,12.20
2018-06-12T04:11:30.105Z,13.90
2018-06-12T04:12:30.163Z,12.80
2018-06-12T04:13:30.057Z,13.10
2018-06-12T04:14:30.064Z,12.70
2018-06-12T04:15:30.090Z,13.40
2018-06-12T04:16:30.092Z,12.00
2018-06-12T04:17:30.106Z,12.50
2018-06-12T04:18:30.131Z,13.30
2018-06-12T04:19:30.141Z,11.20
2018-06-12T04:20:30.201Z,11.80
2018-06-12T04:21:30.170Z,11.70
2018-06-12T04:22:30.186Z,11.20
2018-06-12T04:23:30.204Z,13.10
2018-06-12T04:24:30.221Z,11.20
2018-06-12T04:25:30.240Z,11.80
2018-06-12T04:26:30.248Z,11.70
2018-06-12T04:27:30.267Z,12.80
2018-06-12T04:28:30.284Z,11.90
2018-06-12T04:29:30.293Z,14.10
2018-06-12T04:30:30.313Z,11.70
2018-06-12T04:31:30.321Z,11.60
2018-06-12T04:32:30.348Z,11.60
2018-06-12T04:33:30.353Z,12.40
2018-06-12T04:34:30.367Z,12.30
2018-06-12T04:35:30.382Z,12.10
2018-06-12T04:36:30.406Z,13.60
2018-06-12T04:37:30.427Z,11.70
2018-06-12T04:38:30.427Z,13.00
2018-06-12T04:39:30.454Z,10.60
2018-06-12T04:40:30.471Z,10.90
2018-06-12T04:41:30.492Z,12.00
2018-06-12T04:42:30.490Z,13.50
2018-06-12T04:43:31.396Z,10.50
2018-06-12T04:44:30.521Z,11.00
2018-06-12T04:45:30.720Z,12.30
2018-06-12T04:46:30.562Z,10.40
2018-06-12T04:47:30.567Z,10.90
2018-06-12T04:48:30.642Z,11.00
2018-06-12T04:49:30.599Z,10.70
2018-06-12T04:50:30.616Z,13.90
2018-06-12T04:51:30.840Z,10.60
2018-06-12T04:52:30.661Z,12.50
2018-06-12T04:53:30.667Z,13.10
2018-06-12T04:54:30.679Z,11.80
2018-06-12T04:55:30.695Z,10.30
2018-06-12T04:56:30.738Z,13.10
2018-06-12T04:57:30.720Z,11.60
2018-06-12T04:58:30.739Z,11.50
2018-06-12T04:59:30.753Z,9.70
2018-06-12T05:00:30.768Z,10.40
2018-06-12T05:01:30.786Z,12.30
2018-06-12T05:02:30.798Z,11.00
2018-06-12T05:03:30.815Z,10.20
2018-06-12T05:04:30.838Z,11.90
2018-06-12T05:05:30.853Z,13.20
2018-06-12T05:06:30.865Z,10.00
2018-06-12T05:07:30.880Z,10.60
2018-06-12T05:08:31.037Z,12.50
2018-06-12T05:09:30.909Z,10.80
2018-06-12T05:10:30.968Z,11.60
2018-06-12T05:11:31.465Z,11.40
2018-06-12T05:12:30.963Z,10.60
2018-06-12T05:13:30.991Z,10.00
2018-06-12T05:14:31.030Z,9.10
2018-06-12T05:15:31.005Z,10.80
2018-06-12T05:16:31.088Z,10.30
2018-06-12T05:17:31.044Z,10.30
2018-06-12T05:18:31.053Z,10.10
2018-06-12T05:19:31.067Z,10.80
2018-06-12T05:20:31.082Z,10.10
2018-06-12T05:21:31.096Z,12.30
2018-06-12T05:22:31.146Z,10.80
2018-06-12T05:23:31.139Z,9.60
2018-06-12T05:24:31.148Z,11.60
2018-06-12T05:25:31.213Z,11.70
2018-06-12T05:26:31.178Z,9.90
2018-06-12T05:27:31.191Z,8.50
2018-06-12T05:28:31.204Z,10.90
2018-06-12T05:29:31.234Z,10.90
2018-06-12T05:30:31.276Z,9.20
2018-06-12T05:31:31.261Z,10.40
2018-06-12T05:32:31.285Z,8.80
2018-06-12T05:33:31.283Z,12.00
2018-06-12T05:34:31.326Z,9.10
2018-06-12T05:35:31.327Z,9.80
2018-06-12T05:36:31.330Z,8.30
2018-06-12T05:37:31.519Z,9.70
2018-06-12T05:38:31.362Z,10.20
2018-06-12T05:39:31.386Z,9.60
2018-06-12T05:40:31.398Z,10.00
2018-06-12T05:41:31.426Z,11.00
2018-06-12T05:42:31.425Z,10.20
2018-06-12T05:43:31.528Z,8.40
2018-06-12T05:44:31.457Z,8.70
2018-06-12T05:45:31.475Z,9.70
2018-06-12T05:46:31.491Z,9.30
2018-06-12T05:47:31.505Z,12.10
2018-06-12T05:48:31.527Z,8.60
2018-06-12T05:49:31.551Z,10.80
2018-06-12T05:50:31.557Z,11.10
2018-06-12T05:51:31.700Z,10.50
2018-06-12T05:52:31.639Z,8.80
2018-06-12T05:53:31.599Z,9.30
2018-06-12T05:54:31.686Z,10.00
2018-06-12T05:55:31.630Z,8.60
2018-06-12T05:56:31.644Z,7.70
2018-06-12T05:57:31.659Z,9.60
2018-06-12T05:58:31.674Z,8.90
2018-06-12T05:59:31.702Z,8.10
2018-06-12T06:00:31.709Z,9.80
2018-06-12T06:01:31.733Z,10.00
2018-06-12T06:02:31.741Z,7.80
2018-06-12T06:03:31.762Z,8.80
2018-06-12T06:04:31.777Z,8.60
2018-06-12T06:05:31.793Z,9.60
2018-06-12T06:06:31.822Z,8.70
2018-06-12T06:07:31.817Z,11.40
2018-06-12T06:08:31.847Z,8.20
2018-06-12T06:09:31.851Z,7.70
2018-06-12T06:10:31.902Z,11.80
2018-06-12T06:11:31.926Z,10.70
2018-06-12T06:12:31.891Z,8.90
2018-06-12T06:13:32.142Z,7.90
2018-06-12T06:14:31.926Z,11.50
2018-06-12T06:15:31.940Z,7.30
2018-06-12T06:16:31.958Z,9.20
2018-06-12T06:17:31.971Z,9.90
2018-06-12T06:18:31.989Z,9.40
2018-06-12T06:19:32.018Z,8.80
2018-06-12T06:20:32.022Z,10.20
2018-06-12T06:21:32.232Z,7.70
2018-06-12T06:22:32.161Z,8.80
2018-06-12T06:23:32.075Z,7.70
2018-06-12T06:25:32.100Z,8.10
2018-06-12T06:26:32.114Z,10.70
2018-06-12T06:27:32.128Z,9.80
2018-06-12T06:29:32.163Z,8.90
2018-06-12T06:30:32.176Z,9.80
2018-06-12T06:31:32.209Z,7.80
2018-06-12T06:32:32.208Z,9.20
2018-06-12T06:33:32.237Z,7.60
2018-06-12T06:34:32.254Z,11.50
2018-06-12T06:35:32.305Z,12.60
2018-06-12T06:36:32.326Z,14.20
2018-06-12T06:37:32.293Z,11.40
2018-06-12T06:38:32.369Z,9.50
2018-06-12T06:40:32.338Z,8.40
2018-06-12T06:41:32.539Z,8.10
2018-06-12T06:42:32.368Z,11.20
2018-06-12T06:43:32.972Z,8.80
2018-06-12T06:44:32.508Z,10.10
2018-06-12T06:45:32.653Z,7.00
2018-06-12T06:46:32.768Z,8.40
2018-06-12T06:47:32.447Z,7.90
2018-06-12T06:48:32.462Z,9.70
2018-06-12T06:49:32.508Z,7.40
2018-06-12T06:50:32.496Z,9.80
2018-06-12T06:51:32.976Z,11.00
2018-06-12T06:52:32.640Z,8.60
2018-06-12T06:53:32.591Z,7.70
2018-06-12T06:54:32.559Z,7.90
2018-06-12T06:55:32.574Z,7.10
2018-06-12T06:56:33.166Z,7.80
2018-06-12T06:57:32.615Z,10.60
2018-06-12T06:58:32.814Z,9.30
2018-06-12T06:59:32.658Z,8.50
2018-06-12T07:00:32.661Z,7.90
2018-06-12T07:01:32.671Z,8.10
2018-06-12T07:02:32.992Z,7.30
2018-06-12T07:03:32.741Z,8.30
2018-06-12T07:04:32.719Z,9.10
2018-06-12T07:05:32.827Z,8.60
2018-06-12T07:06:32.752Z,8.20
2018-06-12T07:07:32.867Z,9.40
2018-06-12T07:08:32.970Z,7.60
2018-06-12T07:09:33.303Z,7.60
2018-06-12T07:10:32.816Z,8.10
2018-06-12T07:11:33.324Z,7.40
2018-06-12T07:12:32.848Z,9.30
2018-06-12T07:13:32.866Z,7.60
2018-06-12T07:14:32.891Z,10.30
2018-06-12T07:15:33.751Z,11.70
2018-06-12T07:16:33.423Z,7.50
2018-06-12T07:17:32.944Z,7.80
2018-06-12T07:18:32.966Z,8.20
2018-06-12T07:19:32.972Z,7.90
2018-06-12T07:20:32.987Z,9.30
2018-06-12T07:21:32.999Z,6.20
2018-06-12T07:22:33.007Z,7.60
2018-06-12T07:23:33.052Z,7.30
2018-06-12T07:24:33.043Z,7.80
2018-06-12T07:25:33.276Z,8.30
2018-06-12T07:26:33.091Z,7.00
2018-06-12T07:27:33.353Z,6.50
2018-06-12T07:28:33.112Z,8.80
2018-06-12T07:29:33.458Z,7.00
2018-06-12T07:30:33.164Z,7.90
2018-06-12T07:31:33.319Z,7.00
2018-06-12T07:32:33.182Z,7.00
2018-06-12T07:33:34.695Z,9.40
2018-06-12T07:35:34.093Z,7.20
2018-06-12T07:36:33.248Z,6.60
2018-06-12T07:37:33.281Z,6.80
2018-06-12T07:38:33.266Z,6.90
2018-06-12T07:39:33.479Z,6.20
2018-06-12T07:40:33.302Z,8.90
2018-06-12T07:41:33.375Z,6.10
2018-06-12T07:42:33.377Z,6.70
2018-06-12T07:43:33.492Z,8.00
2018-06-12T07:44:33.414Z,4.90
2018-06-12T07:45:33.496Z,5.20
2018-06-12T07:46:33.796Z,8.40
2018-06-12T07:47:33.522Z,8.50
2018-06-12T07:48:33.516Z,7.30
2018-06-12T07:49:33.448Z,8.10
2018-06-12T07:50:33.858Z,5.90
2018-06-12T07:51:33.478Z,8.80
2018-06-12T07:52:33.516Z,8.20
2018-06-12T07:54:33.644Z,7.50
2018-06-12T07:55:33.610Z,8.00
2018-06-12T07:56:33.583Z,7.80
2018-06-12T07:57:33.610Z,7.60
2018-06-12T07:58:33.986Z,5.80
2018-06-12T07:59:33.765Z,7.70
2018-06-12T08:00:33.629Z,6.50
2018-06-12T08:01:33.644Z,8.70
2018-06-12T08:02:33.660Z,7.50
2018-06-12T08:03:34.041Z,9.00
2018-06-12T08:04:37.347Z,10.60
2018-06-12T08:05:33.708Z,5.80
2018-06-12T08:06:33.729Z,6.70
2018-06-12T08:07:33.739Z,7.10
2018-06-12T08:08:33.758Z,6.70
2018-06-12T08:09:33.782Z,11.60
2018-06-12T08:10:33.787Z,5.80
2018-06-12T08:11:33.813Z,6.20
2018-06-12T08:12:33.821Z,4.80
2018-06-12T08:13:34.175Z,3.90
2018-06-12T08:14:33.854Z,7.30
2018-06-12T08:15:33.882Z,4.70
2018-06-12T08:16:33.919Z,6.30
2018-06-12T08:17:33.934Z,4.90
2018-06-12T08:18:33.942Z,4.80
2018-06-12T08:19:33.955Z,10.90
2018-06-12T08:20:33.954Z,5.80
2018-06-12T08:21:33.973Z,7.70
2018-06-12T08:22:34.004Z,5.90
2018-06-12T08:23:34.550Z,5.40
2018-06-12T08:24:34.023Z,7.80
2018-06-12T08:25:34.037Z,4.50
2018-06-12T08:26:34.055Z,6.80
2018-06-12T08:27:34.070Z,5.90
2018-06-12T08:28:34.089Z,7.10
2018-06-12T08:29:34.108Z,4.10
2018-06-12T08:30:34.302Z,8.00
2018-06-12T08:31:34.136Z,5.40
2018-06-12T08:32:34.153Z,5.90
2018-06-12T08:33:34.678Z,6.70
2018-06-12T08:34:34.184Z,7.20
2018-06-12T08:35:34.242Z,7.80
2018-06-12T08:36:34.219Z,6.50
2018-06-12T08:37:34.235Z,8.50
2018-06-12T08:38:34.251Z,7.90
2018-06-12T08:39:34.267Z,6.50
2018-06-12T08:40:34.286Z,6.30
2018-06-12T08:41:34.301Z,6.00
2018-06-12T08:42:34.320Z,7.30
2018-06-12T08:43:34.336Z,5.80
2018-06-12T08:44:34.352Z,8.40
2018-06-12T08:45:34.370Z,6.30
2018-06-12T08:46:34.478Z,4.30
2018-06-12T08:47:34.400Z,7.00
2018-06-12T08:48:34.419Z,6.20
2018-06-12T08:49:34.435Z,6.40
2018-06-12T08:50:34.451Z,6.60
2018-06-12T08:51:34.671Z,8.50
2018-06-12T08:52:34.720Z,6.10
2018-06-12T08:53:34.499Z,6.70
2018-06-12T08:54:34.517Z,9.10
2018-06-12T08:55:34.536Z,6.10
2018-06-12T08:56:34.551Z,7.30
2018-06-12T08:57:34.567Z,6.20
2018-06-12T08:58:34.590Z,5.70
2018-06-12T08:59:34.606Z,6.50
2018-06-12T09:00:34.629Z,7.90
2018-06-12T09:01:34.638Z,7.60
2018-06-12T09:02:34.869Z,7.60
2018-06-12T09:04:34.688Z,7.50
2018-06-12T09:05:34.700Z,6.60
2018-06-12T09:06:34.725Z,11.00
2018-06-12T09:07:34.921Z,9.20
2018-06-12T09:08:34.756Z,7.60
2018-06-12T09:09:34.772Z,6.70
2018-06-12T09:10:34.793Z,7.10
2018-06-12T09:11:34.805Z,8.10
2018-06-12T09:12:34.820Z,8.10
2018-06-12T09:13:34.836Z,7.80
2018-06-12T09:14:34.855Z,11.20
2018-06-12T09:15:34.877Z,7.40
2018-06-12T09:16:34.892Z,8.40
2018-06-12T09:17:34.903Z,6.80
2018-06-12T09:18:34.927Z,8.50
2018-06-12T09:19:34.942Z,7.60
2018-06-12T09:20:34.960Z,8.00
2018-06-12T09:21:34.990Z,7.50
2018-06-12T09:22:34.989Z,7.00
2018-06-12T09:23:35.002Z,7.20
2018-06-12T09:24:35.019Z,9.10
2018-06-12T09:25:35.039Z,7.80
2018-06-12T09:26:35.058Z,7.10
2018-06-12T09:27:35.071Z,6.10
2018-06-12T09:28:35.090Z,7.20
2018-06-12T09:29:35.115Z,5.80
2018-06-12T09:30:35.127Z,6.00
2018-06-12T09:32:35.155Z,8.00
2018-06-12T09:34:35.199Z,7.30
2018-06-12T09:35:35.207Z,9.10
2018-06-12T09:36:35.223Z,7.40
2018-06-12T09:37:35.242Z,6.90
2018-06-12T09:38:35.257Z,6.30
2018-06-12T09:39:35.286Z,7.30
2018-06-12T09:40:35.307Z,6.90
2018-06-12T09:41:35.320Z,9.40
2018-06-12T09:42:35.342Z,8.60
2018-06-12T09:43:35.344Z,7.90
2018-06-12T09:44:35.360Z,6.60
2018-06-12T09:45:35.409Z,8.90
2018-06-12T09:46:36.227Z,7.20
2018-06-12T09:47:35.419Z,9.50
2018-06-12T09:48:35.434Z,8.40
2018-06-12T09:49:35.449Z,8.50
2018-06-12T09:50:35.867Z,8.10
2018-06-12T09:51:35.502Z,10.20
2018-06-12T09:52:35.496Z,10.40
2018-06-12T09:53:35.513Z,7.80
2018-06-12T09:54:35.543Z,7.00
2018-06-12T09:55:35.548Z,8.10
2018-06-12T09:56:35.563Z,10.10
2018-06-12T09:57:35.589Z,9.10
2018-06-12T09:58:35.808Z,10.20
2018-06-12T09:59:35.633Z,7.60
2018-06-12T10:00:35.632Z,9.10
2018-06-12T10:01:36.240Z,7.90
2018-06-12T10:02:35.672Z,10.50
2018-06-12T10:03:35.687Z,7.50
2018-06-12T10:04:35.710Z,7.80
2018-06-12T10:05:35.719Z,8.20
2018-06-12T10:06:35.737Z,9.20
2018-06-12T10:07:35.767Z,8.00
2018-06-12T10:08:35.772Z,9.30
2018-06-12T10:09:35.787Z,8.30
2018-06-12T10:10:35.807Z,6.50
2018-06-12T10:11:35.825Z,7.60
2018-06-12T10:12:35.870Z,7.70
2018-06-12T10:14:35.881Z,7.60
2018-06-12T10:15:35.887Z,7.00
2018-06-12T10:16:36.000Z,7.80
2018-06-12T10:17:35.956Z,8.50
2018-06-12T10:18:35.962Z,8.90
2018-06-12T10:19:35.968Z,7.60
2018-06-12T10:20:35.975Z,6.50
2018-06-12T10:21:35.993Z,7.90
2018-06-12T10:22:36.024Z,7.00
2018-06-12T10:23:36.029Z,9.00
2018-06-12T10:24:36.054Z,7.10
2018-06-12T10:25:36.091Z,7.20
2018-06-12T10:26:36.085Z,8.00
2018-06-12T10:27:36.157Z,7.00
2018-06-12T10:28:36.117Z,6.80
2018-06-12T10:29:36.146Z,10.00
2018-06-12T10:30:36.153Z,8.20
2018-06-12T10:31:36.169Z,8.90
2018-06-12T10:32:36.285Z,6.50
2018-06-12T10:34:36.233Z,8.40
2018-06-12T10:36:36.320Z,6.60
2018-06-12T10:37:36.557Z,7.80
2018-06-12T10:38:36.525Z,7.00
2018-06-12T10:39:36.309Z,5.10
2018-06-12T10:41:36.333Z,4.20
2018-06-12T10:42:36.351Z,7.00
2018-06-12T10:43:36.376Z,6.60
2018-06-12T10:44:36.386Z,6.20
2018-06-12T10:45:36.404Z,6.30
2018-06-12T10:46:36.426Z,6.20
2018-06-12T10:47:36.447Z,5.30
2018-06-12T10:48:36.460Z,7.20
2018-06-12T10:49:36.472Z,5.40
2018-06-12T10:50:36.489Z,6.80
2018-06-12T10:51:36.517Z,7.50
2018-06-12T10:52:36.529Z,7.30
2018-06-12T10:53:36.549Z,7.20
2018-06-12T10:54:36.563Z,5.60
2018-06-12T10:55:36.578Z,7.70
2018-06-12T10:56:36.595Z,5.30
2018-06-12T10:57:37.291Z,6.10
2018-06-12T10:59:36.811Z,5.80
2018-06-12T11:00:36.671Z,7.60
2018-06-12T11:01:36.699Z,6.20
2018-06-12T11:02:36.699Z,7.70
2018-06-12T11:03:36.909Z,7.80
2018-06-12T11:04:36.933Z,6.50
2018-06-12T11:05:37.608Z,6.50
2018-06-12T11:06:36.768Z,6.80
2018-06-12T11:08:36.816Z,7.90
2018-06-12T11:09:36.820Z,8.80
2018-06-12T11:10:36.835Z,5.60
2018-06-12T11:11:36.859Z,7.10
2018-06-12T11:12:36.875Z,6.50
2018-06-12T11:14:36.914Z,6.40
2018-06-12T11:15:36.925Z,6.60
2018-06-12T11:16:36.952Z,6.00
2018-06-12T11:17:36.957Z,5.00
2018-06-12T11:18:36.972Z,8.00
2018-06-12T11:19:37.000Z,7.60
2018-06-12T11:20:37.099Z,6.80
2018-06-12T11:21:37.166Z,6.10
2018-06-12T11:22:37.046Z,6.10
2018-06-12T11:23:37.065Z,7.40
2018-06-12T11:24:38.542Z,8.20
2018-06-12T11:25:37.097Z,8.60
2018-06-12T11:26:37.114Z,7.40
2018-06-12T11:27:37.134Z,7.80
2018-06-12T11:28:37.384Z,7.90
2018-06-12T11:29:37.168Z,6.40
2018-06-12T11:30:37.185Z,6.80
2018-06-12T11:31:37.199Z,6.80
2018-06-12T11:33:37.232Z,5.90
2018-06-12T11:34:37.370Z,5.60
2018-06-12T11:35:37.421Z,7.30
2018-06-12T11:37:38.325Z,6.10
2018-06-12T11:38:37.318Z,7.40
2018-06-12T11:39:37.364Z,6.50
2018-06-12T11:40:37.349Z,7.60
2018-06-12T11:41:37.382Z,5.20
2018-06-12T11:42:37.384Z,6.70
2018-06-12T11:43:37.403Z,5.90
2018-06-12T11:44:37.421Z,8.50
2018-06-12T11:45:37.438Z,5.80
2018-06-12T11:46:37.453Z,7.00
2018-06-12T11:47:37.470Z,6.80
2018-06-12T11:48:37.877Z,7.70
2018-06-12T11:49:37.568Z,6.30
2018-06-12T11:50:37.828Z,7.70
2018-06-12T11:51:37.621Z,8.10
2018-06-12T11:52:37.565Z,6.20
2018-06-12T11:53:37.576Z,7.70
2018-06-12T11:54:37.827Z,7.80
2018-06-12T11:55:37.698Z,8.50
2018-06-12T11:56:37.627Z,7.70
2018-06-12T11:58:39.120Z,6.20
2018-06-12T11:59:37.791Z,10.80
2018-06-12T12:00:38.820Z,8.30
2018-06-12T12:01:37.758Z,10.50
2018-06-12T12:02:37.926Z,7.10
2018-06-12T12:03:37.812Z,8.40
2018-06-12T12:04:37.778Z,8.10
2018-06-12T12:06:37.884Z,8.20
2018-06-12T12:07:37.994Z,7.00
2018-06-12T12:08:37.830Z,7.70
2018-06-12T12:09:37.841Z,9.50
2018-06-12T12:10:39.331Z,7.10
2018-06-12T12:11:37.873Z,8.00
2018-06-12T12:12:37.903Z,6.50
2018-06-12T12:13:38.028Z,6.10
2018-06-12T12:14:37.933Z,7.50
2018-06-12T12:15:37.946Z,7.40
2018-06-12T12:16:37.960Z,8.30
2018-06-12T12:17:38.142Z,8.00
2018-06-12T12:18:37.993Z,7.50
2018-06-12T12:19:38.017Z,7.60
2018-06-12T12:20:38.638Z,9.10
2018-06-12T12:21:38.082Z,9.10
2018-06-12T12:22:38.130Z,8.70
2018-06-12T12:23:38.138Z,10.90
2018-06-12T12:24:38.129Z,8.60
2018-06-12T12:25:38.191Z,8.50
2018-06-12T12:26:38.384Z,9.30
2018-06-12T12:27:38.149Z,7.70
2018-06-12T12:29:38.244Z,9.20
2018-06-12T12:30:38.609Z,8.10
2018-06-12T12:32:38.242Z,7.70
2018-06-12T12:33:38.296Z,7.00
2018-06-12T12:34:38.276Z,9.10
2018-06-12T12:35:38.282Z,8.70
2018-06-12T12:36:38.300Z,7.90
2018-06-12T12:37:38.319Z,8.50
2018-06-12T12:39:38.353Z,7.30
2018-06-12T12:40:38.422Z,10.90
2018-06-12T12:41:38.697Z,7.30
2018-06-12T12:42:38.404Z,9.40
2018-06-12T12:43:38.468Z,10.10
2018-06-12T12:44:38.443Z,8.30
2018-06-12T12:45:38.461Z,7.40
2018-06-12T12:46:38.468Z,8.30
2018-06-12T12:47:38.541Z,10.30
2018-06-12T12:48:39.009Z,7.20
2018-06-12T12:49:38.518Z,7.20
2018-06-12T12:50:38.544Z,8.70
2018-06-12T12:51:38.554Z,8.40
2018-06-12T12:52:38.571Z,7.60
2018-06-12T12:53:38.649Z,9.20
2018-06-12T12:54:38.742Z,8.10
2018-06-12T12:55:38.620Z,8.80
2018-06-12T12:56:38.655Z,7.40
2018-06-12T12:57:38.659Z,8.30
2018-06-12T12:58:38.676Z,9.10
2018-06-12T12:59:39.682Z,7.90
2018-06-12T13:00:38.708Z,8.20
2018-06-12T13:01:38.798Z,7.10
2018-06-12T13:02:38.743Z,7.80
2018-06-12T13:04:38.776Z,8.40
2018-06-12T13:05:38.858Z,6.10
2018-06-12T13:06:39.214Z,7.20
2018-06-12T13:07:38.838Z,6.90
2018-06-12T13:08:39.156Z,6.80
2018-06-12T13:09:39.847Z,7.40
2018-06-12T13:10:38.885Z,7.40
2018-06-12T13:11:38.897Z,7.90
2018-06-12T13:12:38.913Z,6.40
2018-06-12T13:13:38.934Z,6.50
2018-06-12T13:14:38.948Z,8.80
2018-06-12T13:15:38.963Z,7.40
2018-06-12T13:16:38.987Z,6.20
2018-06-12T13:18:39.022Z,7.80
2018-06-12T13:19:39.038Z,7.40
2018-06-12T13:20:39.050Z,7.40
2018-06-12T13:21:39.067Z,7.40
2018-06-12T13:22:39.125Z,10.20
2018-06-12T13:23:39.523Z,8.40
2018-06-12T13:24:39.116Z,8.60
2018-06-12T13:25:39.133Z,7.40
2018-06-12T13:26:39.844Z,7.50
2018-06-12T13:27:39.222Z,7.70
2018-06-12T13:28:39.205Z,8.10
2018-06-12T13:29:39.222Z,7.90
2018-06-12T13:30:39.219Z,10.20
2018-06-12T13:31:39.239Z,8.60